Time;durP1;ratioP1;P1;durP2;ratioP2;P2;SDS_P1;SDS_P2;PMS_P1;PMS_P2;Temp;Humidity;BMP_temperature;BMP_pressure;BME280_temperature;BME280_humidity;BME280_pressure;Samples;Min_cycle;Max_cycle;Signal;HPM_P1;HPM_P2
2022/09/19 00:03:29;;;;;;;4.00;0.93;;;12.40;99.90;;;;;;21094485;28;20066;-79
2022/09/19 00:13:31;;;;;;;1.53;0.70;;;12.30;99.90;;;;;;21078366;28;20092;-79
2022/09/19 00:33:52;;;;;;;4.72;0.63;;;12.20;99.90;;;;;;21092464;28;20035;-79
2022/09/19 00:43:59;;;;;;;3.00;0.70;;;12.20;99.90;;;;;;21092533;28;20036;-80
2022/09/19 00:54:13;;;;;;;1.27;0.65;;;12.10;99.90;;;;;;21092259;28;20032;-80
2022/09/19 01:04:23;;;;;;;4.32;0.82;;;12.00;99.90;;;;;;21092751;28;20054;-79
2022/09/19 01:15:00;;;;;;;3.17;1.05;;;11.90;99.90;;;;;;21104338;28;20094;-80
2022/09/19 01:25:17;;;;;;;3.38;1.58;;;11.80;99.90;;;;;;21104870;28;20458;-79
2022/09/19 01:35:26;;;;;;;5.57;0.93;;;11.70;99.90;;;;;;21087530;28;20032;-80
2022/09/19 01:45:31;;;;;;;5.00;1.00;;;11.50;99.90;;;;;;21085036;28;20032;-78
2022/09/19 01:55:47;;;;;;;4.55;1.10;;;11.40;99.90;;;;;;21102449;28;20394;-80
2022/09/19 02:05:56;;;;;;;6.75;0.80;;;11.50;99.90;;;;;;21103399;28;20035;-80
2022/09/19 02:16:06;;;;;;;2.83;1.15;;;11.50;99.90;;;;;;21084400;28;20397;-80
2022/09/19 02:26:09;;;;;;;1.50;1.08;;;11.50;99.90;;;;;;21102256;28;20030;-81
2022/09/19 02:36:26;;;;;;;4.35;1.20;;;11.40;99.90;;;;;;21084277;28;20031;-80
2022/09/19 02:46:38;;;;;;;2.30;1.30;;;11.40;99.90;;;;;;21099193;28;20044;-81
2022/09/19 02:56:41;;;;;;;2.35;1.10;;;11.40;99.90;;;;;;21096409;28;20024;-79
2022/09/19 03:07:07;;;;;;;1.83;0.80;;;11.30;99.90;;;;;;21100413;28;20032;-79
2022/09/19 03:17:11;;;;;;;5.40;0.98;;;11.30;99.90;;;;;;21077825;28;20036;-79
2022/09/19 03:27:12;;;;;;;2.63;0.93;;;11.30;99.90;;;;;;21092453;28;20119;-80
2022/09/19 03:37:14;;;;;;;4.13;0.82;;;11.00;99.90;;;;;;21085392;28;20028;-82
2022/09/19 03:47:15;;;;;;;3.78;1.00;;;10.90;99.90;;;;;;21088472;28;20043;-82
2022/09/19 03:57:17;;;;;;;2.53;0.80;;;10.70;99.90;;;;;;21090401;28;20036;-82
2022/09/19 04:07:20;;;;;;;3.88;1.10;;;10.60;99.90;;;;;;21089637;28;20051;-82
2022/09/19 04:17:21;;;;;;;3.60;1.40;;;10.50;99.90;;;;;;21028845;28;20033;-81
2022/09/19 04:27:22;;;;;;;1.63;1.03;;;10.30;99.90;;;;;;20985596;28;20441;-82
2022/09/19 04:37:26;;;;;;;2.42;1.13;;;10.20;99.90;;;;;;21007226;28;20032;-81
2022/09/19 04:47:37;;;;;;;3.90;1.20;;;9.90;99.90;;;;;;21075361;28;20597;-82
2022/09/19 04:57:38;;;;;;;2.05;1.13;;;10.00;99.90;;;;;;21082138;28;20070;-81
2022/09/19 05:07:44;;;;;;;2.70;1.40;;;10.10;99.90;;;;;;21090855;28;20232;-82
2022/09/19 05:17:49;;;;;;;2.37;1.40;;;10.10;99.90;;;;;;21075207;28;20032;-81
2022/09/19 05:27:50;;;;;;;1.67;1.08;;;10.00;99.90;;;;;;21100876;28;20048;-80
2022/09/19 05:37:52;;;;;;;7.85;1.73;;;10.20;99.90;;;;;;21116172;28;20393;-81
2022/09/19 05:48:11;;;;;;;1.65;1.13;;;10.40;99.90;;;;;;21112733;28;20032;-79
2022/09/19 05:58:15;;;;;;;;;;;10.50;99.90;;;;;;21119071;28;20028;-79
2022/09/19 06:08:17;;;;;;;7.15;1.35;;;10.60;99.90;;;;;;21114330;28;19938;-79
2022/09/19 06:18:19;;;;;;;1.73;1.20;;;11.30;99.90;;;;;;21113665;28;20096;-79
2022/09/19 06:28:27;;;;;;;1.98;0.95;;;11.60;99.90;;;;;;21098538;28;20452;-79
2022/09/19 06:38:35;;;;;;;2.05;1.20;;;11.80;99.90;;;;;;21108359;28;20040;-79
2022/09/19 06:48:55;;;;;;;4.50;1.30;;;12.50;99.90;;;;;;21113351;28;20032;-79
2022/09/19 06:59:11;;;;;;;2.58;1.02;;;13.20;99.90;;;;;;21114505;28;20115;-79
2022/09/19 07:09:14;;;;;;;4.43;1.20;;;13.80;99.90;;;;;;21098362;28;20055;-79
2022/09/19 07:19:14;;;;;;;4.57;1.10;;;13.70;99.90;;;;;;21110546;28;20039;-79
2022/09/19 07:29:24;;;;;;;3.38;1.35;;;14.60;99.90;;;;;;21112197;28;20040;-79
2022/09/19 07:39:25;;;;;;;2.87;1.13;;;15.00;99.90;;;;;;21110111;28;20126;-79
2022/09/19 07:49:43;;;;;;;3.40;1.10;;;15.50;99.90;;;;;;21101891;28;20051;-79
2022/09/19 08:00:00;;;;;;;2.55;0.70;;;15.20;99.90;;;;;;21101632;28;20036;-79
2022/09/19 08:10:03;;;;;;;2.30;0.82;;;15.80;99.90;;;;;;21113400;28;20541;-79
2022/09/19 08:20:05;;;;;;;5.13;0.52;;;16.30;99.90;;;;;;21107256;28;20047;-79
2022/09/19 08:30:11;;;;;;;1.23;0.70;;;16.40;99.90;;;;;;21132910;28;20032;-79
2022/09/19 08:40:44;;;;;;;2.50;0.60;;;16.80;99.90;;;;;;21136454;28;20024;-79
2022/09/19 08:50:57;;;;;;;5.55;2.10;;;18.30;99.90;;;;;;21131130;28;20118;-80
2022/09/19 09:01:00;;;;;;;1.90;0.60;;;18.50;99.90;;;;;;21136236;28;20032;-79
2022/09/19 09:11:20;;;;;;;2.03;0.68;;;16.20;99.90;;;;;;21117767;28;20107;-79
2022/09/19 09:21:39;;;;;;;17.52;11.43;;;16.90;99.90;;;;;;21135980;28;20075;-79
2022/09/19 09:31:46;;;;;;;2.20;1.15;;;18.30;99.90;;;;;;21132420;28;20437;-79
2022/09/19 09:42:10;;;;;;;4.20;0.70;;;18.10;99.90;;;;;;21119054;28;20410;-79
2022/09/19 09:52:32;;;;;;;1.63;0.68;;;18.10;99.90;;;;;;21130885;28;20107;-79
2022/09/19 10:13:27;;;;;;;4.85;0.40;;;19.60;99.90;;;;;;21127226;28;20032;-79
2022/09/19 10:23:32;;;;;;;1.67;0.50;;;18.60;99.90;;;;;;21123623;28;20522;-79
2022/09/19 10:33:47;;;;;;;1.95;0.75;;;19.80;99.90;;;;;;21124188;28;20040;-79
2022/09/19 10:44:09;;;;;;;2.83;0.47;;;19.30;99.90;;;;;;21108923;28;20043;-81
2022/09/19 10:54:30;;;;;;;15.85;6.72;;;19.60;99.90;;;;;;21112134;28;20028;-79
2022/09/19 11:04:32;;;;;;;6.53;1.80;;;20.50;99.90;;;;;;21127808;28;20035;-79
2022/09/19 11:14:37;;;;;;;1.60;0.73;;;20.60;99.90;;;;;;21126507;28;20036;-80
2022/09/19 11:25:15;;;;;;;3.53;1.00;;;21.20;99.90;;;;;;21116358;28;20123;-79
2022/09/19 11:35:29;;;;;;;2.40;0.30;;;19.70;99.90;;;;;;21112039;28;20375;-79
2022/09/19 11:45:48;;;;;;;2.90;0.52;;;19.50;99.90;;;;;;21105508;28;20401;-78
2022/09/19 11:56:00;;;;;;;3.47;0.50;;;19.40;99.90;;;;;;21102848;28;20032;-79
2022/09/19 12:06:04;;;;;;;1.55;0.45;;;19.50;99.90;;;;;;21084623;28;20036;-78
2022/09/19 12:16:15;;;;;;;3.45;0.50;;;19.00;99.90;;;;;;21090400;28;20044;-79
2022/09/19 12:26:24;;;;;;;2.85;0.38;;;19.60;99.90;;;;;;21108037;28;20063;-78
2022/09/19 12:36:42;;;;;;;0.30;0.30;;;20.10;99.90;;;;;;21101264;28;20039;-79
2022/09/19 12:46:58;;;;;;;2.55;1.00;;;19.90;99.90;;;;;;21106502;28;20119;-79
2022/09/19 12:57:51;;;;;;;0.82;0.50;;;19.90;99.90;;;;;;21103881;28;20054;-79
2022/09/19 13:07:56;;;;;;;;;;;20.70;99.90;;;;;;21099285;28;20060;-80
2022/09/19 13:28:20;;;;;;;;;;;20.80;99.90;;;;;;21138692;28;20028;-79
2022/09/19 13:38:25;;;;;;;0.87;0.37;;;19.70;99.90;;;;;;21126478;28;19908;-79
2022/09/19 13:48:32;;;;;;;1.30;0.40;;;19.80;99.90;;;;;;21127708;28;20051;-79
2022/09/19 13:58:39;;;;;;;2.25;0.47;;;19.90;99.90;;;;;;21105187;28;20036;-79
2022/09/19 14:08:40;;;;;;;1.38;0.32;;;18.20;99.90;;;;;;21122690;28;20050;-79
2022/09/19 14:18:48;;;;;;;1.47;0.43;;;18.80;99.90;;;;;;21057390;28;20024;-79
2022/09/19 14:29:00;;;;;;;1.00;0.50;;;20.40;99.90;;;;;;21096673;28;20036;-79
2022/09/19 14:39:26;;;;;;;1.20;0.57;;;19.20;99.90;;;;;;21116426;28;20119;-79
2022/09/19 14:50:11;;;;;;;1.52;0.40;;;19.20;99.90;;;;;;21090082;28;20040;-79
2022/09/19 15:00:21;;;;;;;3.38;0.38;;;19.90;99.90;;;;;;21120965;28;20047;-80
2022/09/19 15:10:34;;;;;;;9.85;1.58;;;20.40;99.90;;;;;;21116762;28;20050;-79
2022/09/19 15:20:34;;;;;;;2.70;0.50;;;20.30;99.90;;;;;;21120095;28;20034;-79
2022/09/19 15:30:35;;;;;;;5.10;0.47;;;20.50;99.90;;;;;;21115676;28;20281;-78
2022/09/19 15:40:37;;;;;;;8.93;2.30;;;20.30;99.90;;;;;;21109889;28;20036;-80
2022/09/19 15:50:48;;;;;;;4.60;1.65;;;19.60;99.90;;;;;;21100294;28;20043;-80
2022/09/19 16:00:52;;;;;;;3.25;0.50;;;19.40;99.90;;;;;;21034180;28;20032;-80
2022/09/19 16:10:53;;;;;;;2.20;0.60;;;18.60;99.90;;;;;;21064872;28;20043;-80
2022/09/19 16:21:04;;;;;;;2.70;0.50;;;17.40;99.90;;;;;;21115149;28;20036;-79
2022/09/19 16:31:11;;;;;;;2.87;0.80;;;17.10;99.90;;;;;;21100080;28;20027;-79
2022/09/19 16:41:22;;;;;;;4.75;0.90;;;17.00;99.90;;;;;;21106972;28;20394;-79
2022/09/19 16:51:25;;;;;;;1.93;0.40;;;16.70;99.90;;;;;;21121771;28;20028;-79
2022/09/19 17:01:26;;;;;;;3.22;0.93;;;16.50;99.90;;;;;;21120941;28;20769;-79
2022/09/19 17:11:27;;;;;;;9.13;0.90;;;16.10;99.90;;;;;;21117407;28;20032;-78
2022/09/19 17:21:27;;;;;;;1.40;0.50;;;15.40;99.90;;;;;;21114225;28;20494;-79
2022/09/19 17:31:28;;;;;;;11.77;4.93;;;14.80;99.90;;;;;;21117011;28;20054;-78
2022/09/19 17:41:31;;;;;;;7.73;3.43;;;14.40;99.90;;;;;;21094621;28;20036;-79
2022/09/19 17:51:32;;;;;;;6.85;2.00;;;13.90;99.90;;;;;;21112360;28;20085;-78
2022/09/19 18:11:53;;;;;;;7.78;0.80;;;13.60;99.90;;;;;;21102427;28;20596;-78
2022/09/19 18:21:53;;;;;;;;;;;13.60;99.90;;;;;;21100592;28;20032;-78
2022/09/19 18:31:54;;;;;;;1.43;0.53;;;13.40;99.90;;;;;;21085964;28;19951;-78
2022/09/19 18:41:56;;;;;;;5.63;0.90;;;13.30;99.90;;;;;;21082385;28;20039;-78
2022/09/19 18:51:58;;;;;;;1.38;0.50;;;13.70;99.90;;;;;;21078818;28;20067;-77
2022/09/19 19:01:59;;;;;;;4.22;1.08;;;13.10;99.90;;;;;;21079915;28;20510;-78
2022/09/19 19:12:01;;;;;;;11.70;2.27;;;13.00;99.90;;;;;;21078077;28;20028;-79
2022/09/19 19:22:01;;;;;;;7.83;0.80;;;12.60;99.90;;;;;;21076253;22;20044;-78
2022/09/19 19:32:02;;;;;;;3.90;1.13;;;11.80;99.90;;;;;;21026087;28;20300;-76
2022/09/19 19:42:03;;;;;;;2.63;1.07;;;11.60;99.90;;;;;;21033426;28;20036;-78
2022/09/19 19:52:04;;;;;;;1.87;0.93;;;11.40;99.90;;;;;;21036911;28;20043;-78
2022/09/19 20:02:05;;;;;;;4.07;0.87;;;11.40;99.90;;;;;;21037854;28;20050;-78
2022/09/19 20:12:07;;;;;;;3.17;0.93;;;11.40;99.90;;;;;;21016517;28;20028;-77
2022/09/19 20:22:08;;;;;;;4.65;0.70;;;11.30;99.90;;;;;;21025307;28;20054;-77
2022/09/19 20:32:10;;;;;;;4.13;1.40;;;11.30;99.90;;;;;;21023166;28;20040;-77
2022/09/19 20:42:11;;;;;;;3.40;1.17;;;11.20;99.90;;;;;;21021882;28;20032;-77
2022/09/19 20:52:12;;;;;;;2.33;1.03;;;11.20;99.90;;;;;;21022390;28;20029;-76
2022/09/19 21:02:13;;;;;;;1.27;0.60;;;11.00;99.90;;;;;;21016814;28;20121;-78
2022/09/19 21:12:14;;;;;;;2.67;1.07;;;10.90;99.90;;;;;;21011528;28;20466;-78
2022/09/19 21:22:15;;;;;;;3.28;0.70;;;10.50;99.90;;;;;;21007091;28;20052;-78
2022/09/19 21:32:16;;;;;;;1.47;0.80;;;10.30;99.90;;;;;;21023468;28;20196;-78
2022/09/19 21:42:18;;;;;;;2.03;0.80;;;10.40;99.90;;;;;;21024016;28;20068;-78
2022/09/19 21:52:19;;;;;;;4.82;0.82;;;10.00;99.90;;;;;;21025247;28;20636;-77
2022/09/19 22:02:19;;;;;;;3.13;0.80;;;9.80;99.90;;;;;;21032345;28;20025;-78
2022/09/19 22:12:20;;;;;;;4.23;0.80;;;9.60;99.90;;;;;;21020025;28;20064;-78
2022/09/19 22:22:22;;;;;;;6.30;0.93;;;9.60;99.90;;;;;;21018182;28;20047;-77
2022/09/19 22:32:22;;;;;;;;;;;9.70;99.90;;;;;;21016308;28;20033;-77
2022/09/19 22:42:23;;;;;;;3.22;0.60;;;9.60;99.90;;;;;;21015702;28;19927;-78
2022/09/19 22:52:24;;;;;;;5.37;0.70;;;9.50;99.90;;;;;;21021536;28;20375;-77
2022/09/19 23:02:25;;;;;;;3.47;0.90;;;9.10;99.90;;;;;;21017219;28;20086;-78
2022/09/19 23:12:26;;;;;;;1.77;0.80;;;8.90;99.90;;;;;;21018632;28;20119;-78
2022/09/19 23:22:27;;;;;;;5.60;1.00;;;8.90;99.90;;;;;;21025005;28;20028;-77
2022/09/19 23:32:27;;;;;;;2.03;0.93;;;8.50;99.90;;;;;;21013245;28;20032;-76
2022/09/19 23:42:28;;;;;;;2.13;1.03;;;8.10;99.90;;;;;;21012229;28;20028;-77
2022/09/19 23:52:29;;;;;;;2.13;0.97;;;8.00;99.90;;;;;;21024044;28;20056;-76
